createdAt,value
2018-05-05T00:02:04.741Z,17.73
2018-05-05T00:04:33.965Z,17.50
2018-05-05T00:07:02.137Z,17.30
2018-05-05T00:09:30.823Z,17.33
2018-05-05T00:11:58.690Z,17.97
2018-05-05T00:14:27.171Z,17.83
2018-05-05T00:16:55.221Z,17.53
2018-05-05T00:19:23.396Z,17.53
2018-05-05T00:21:51.971Z,15.87
2018-05-05T00:24:20.069Z,17.43
2018-05-05T00:26:48.344Z,16.87
2018-05-05T00:29:17.217Z,16.77
2018-05-05T00:31:45.289Z,16.40
2018-05-05T00:34:13.488Z,17.50
2018-05-05T00:36:41.963Z,16.00
2018-05-05T00:39:10.154Z,16.37
2018-05-05T00:41:39.199Z,15.50
2018-05-05T00:44:07.505Z,15.87
2018-05-05T00:46:35.571Z,15.20
2018-05-05T00:49:03.828Z,15.77
2018-05-05T00:51:31.936Z,16.60
2018-05-05T00:54:00.197Z,16.07
2018-05-05T00:56:28.164Z,15.63
2018-05-05T00:58:57.235Z,15.40
2018-05-05T01:01:25.530Z,16.00
2018-05-05T01:03:53.786Z,15.00
2018-05-05T01:06:22.442Z,15.67
2018-05-05T01:08:50.957Z,15.53
2018-05-05T01:11:19.028Z,15.10
2018-05-05T01:13:47.119Z,16.00
2018-05-05T01:16:15.173Z,15.13
2018-05-05T01:18:43.369Z,15.57
2018-05-05T01:21:12.352Z,14.83
2018-05-05T01:23:41.237Z,15.60
2018-05-05T01:26:09.432Z,14.40
2018-05-05T01:28:37.402Z,16.03
2018-05-05T01:31:05.580Z,14.67
2018-05-05T01:33:34.553Z,15.43
2018-05-05T01:36:03.023Z,14.83
2018-05-05T01:38:31.006Z,14.90
2018-05-05T01:40:59.501Z,14.07
2018-05-05T01:43:28.678Z,14.40
2018-05-05T01:45:57.006Z,14.87
2018-05-05T01:48:25.336Z,14.83
2018-05-05T01:50:53.684Z,15.27
2018-05-05T01:53:21.784Z,14.40
2018-05-05T01:55:50.028Z,15.30
2018-05-05T01:58:18.647Z,15.10
2018-05-05T02:00:46.907Z,14.60
2018-05-05T02:03:15.092Z,15.50
2018-05-05T02:05:43.366Z,15.20
2018-05-05T02:08:11.724Z,15.50
2018-05-05T02:10:39.809Z,14.60
2018-05-05T02:13:07.790Z,14.63
2018-05-05T02:15:36.141Z,14.20
2018-05-05T02:18:04.548Z,15.13
2018-05-05T02:20:33.321Z,14.13
2018-05-05T02:23:01.699Z,15.20
2018-05-05T02:25:29.811Z,14.30
2018-05-05T02:27:59.047Z,15.20
2018-05-05T02:30:27.061Z,14.20
2018-05-05T02:32:55.618Z,13.63
2018-05-05T02:35:23.705Z,15.00
2018-05-05T02:37:51.980Z,14.73
2018-05-05T02:40:20.445Z,14.23
2018-05-05T02:42:48.520Z,14.13
2018-05-05T02:45:17.719Z,13.33
2018-05-05T02:47:46.062Z,13.30
2018-05-05T02:50:14.383Z,14.13
2018-05-05T02:52:42.721Z,15.03
2018-05-05T02:55:11.025Z,14.27
2018-05-05T02:57:39.519Z,14.73
2018-05-05T03:00:07.770Z,13.30
2018-05-05T03:02:36.123Z,14.53
2018-05-05T03:05:04.452Z,14.43
2018-05-05T03:07:32.719Z,13.80
2018-05-05T03:10:00.701Z,14.90
2018-05-05T03:12:29.779Z,14.40
2018-05-05T03:14:57.731Z,13.43
2018-05-05T03:17:25.915Z,13.83
2018-05-05T03:19:54.227Z,14.23
2018-05-05T03:22:23.288Z,14.10
2018-05-05T03:24:51.467Z,14.00
2018-05-05T03:27:21.292Z,13.60
2018-05-05T03:29:49.241Z,13.53
2018-05-05T03:32:17.501Z,13.00
2018-05-05T03:34:45.697Z,13.63
2018-05-05T03:37:15.222Z,14.67
2018-05-05T03:39:44.404Z,13.97
2018-05-05T03:42:12.557Z,15.00
2018-05-05T03:44:40.943Z,14.33
2018-05-05T03:47:09.318Z,13.57
2018-05-05T03:49:37.602Z,14.80
2018-05-05T03:52:05.882Z,14.93
2018-05-05T03:54:34.166Z,13.20
2018-05-05T03:57:02.437Z,13.73
2018-05-05T03:59:42.173Z,14.43
2018-05-05T04:02:22.020Z,14.97
2018-05-05T04:08:05.886Z,14.40
2018-05-05T04:10:34.175Z,15.27
2018-05-05T04:13:02.538Z,14.77
2018-05-05T04:15:30.606Z,15.70
2018-05-05T04:17:59.915Z,13.87
2018-05-05T04:20:28.156Z,13.33
2018-05-05T04:22:56.261Z,14.57
2018-05-05T04:25:24.216Z,13.00
2018-05-05T04:27:52.779Z,13.17
2018-05-05T04:30:21.373Z,11.60
2018-05-05T04:32:49.655Z,13.10
2018-05-05T04:35:18.043Z,12.27
2018-05-05T04:37:46.287Z,13.77
2018-05-05T04:40:15.002Z,12.27
2018-05-05T04:42:43.245Z,12.80
2018-05-05T04:45:11.566Z,13.23
2018-05-05T04:47:41.485Z,12.40
2018-05-05T04:50:09.634Z,12.87
2018-05-05T04:52:37.501Z,12.03
2018-05-05T04:55:05.805Z,14.80
2018-05-05T04:57:33.852Z,12.53
2018-05-05T05:00:01.931Z,11.13
2018-05-05T05:02:30.207Z,10.63
2018-05-05T05:04:58.506Z,12.10
2018-05-05T05:07:27.161Z,11.57
2018-05-05T05:09:55.543Z,13.87
2018-05-05T05:12:23.903Z,10.17
2018-05-05T05:14:52.312Z,11.23
2018-05-05T05:17:21.470Z,12.20
2018-05-05T05:19:50.271Z,12.07
2018-05-05T05:22:18.958Z,11.70
2018-05-05T05:24:47.614Z,11.30
2018-05-05T05:27:15.833Z,11.40
2018-05-05T05:29:43.875Z,12.47
2018-05-05T05:32:12.390Z,11.90
2018-05-05T05:34:40.729Z,11.63
2018-05-05T05:37:09.027Z,11.93
2018-05-05T05:39:37.414Z,11.37
2018-05-05T05:42:05.898Z,11.90
2018-05-05T05:44:33.848Z,11.50
2018-05-05T05:47:02.223Z,11.07
2018-05-05T05:49:30.311Z,12.03
2018-05-05T05:51:58.960Z,11.27
2018-05-05T05:54:27.467Z,11.57
2018-05-05T05:56:55.898Z,10.40
2018-05-05T05:59:24.417Z,10.80
2018-05-05T06:01:52.812Z,10.53
2018-05-05T06:04:20.991Z,11.80
2018-05-05T06:06:48.965Z,11.63
2018-05-05T06:09:18.931Z,10.53
2018-05-05T06:11:47.228Z,11.03
2018-05-05T06:14:15.940Z,11.03
2018-05-05T06:16:44.970Z,10.90
2018-05-05T06:19:13.209Z,11.83
2018-05-05T06:21:41.603Z,10.10
2018-05-05T06:24:10.645Z,10.50
2018-05-05T06:26:39.503Z,11.23
2018-05-05T06:29:07.536Z,10.73
2018-05-05T06:31:36.116Z,11.77
2018-05-05T06:34:04.419Z,12.17
2018-05-05T06:36:33.258Z,12.43
2018-05-05T06:39:01.558Z,14.30
2018-05-05T06:41:29.719Z,13.80
2018-05-05T06:43:58.519Z,12.70
2018-05-05T06:46:27.928Z,13.53
2018-05-05T06:48:56.197Z,17.33
2018-05-05T06:51:25.397Z,11.70
2018-05-05T06:53:54.809Z,11.73
2018-05-05T06:56:23.300Z,12.73
2018-05-05T06:58:52.611Z,13.10
2018-05-05T07:01:21.570Z,10.80
2018-05-05T07:03:50.156Z,12.07
2018-05-05T07:06:18.734Z,10.67
2018-05-05T07:08:47.302Z,11.30
2018-05-05T07:11:15.921Z,10.80
2018-05-05T07:13:45.310Z,12.07
2018-05-05T07:16:13.460Z,9.67
2018-05-05T07:18:41.874Z,9.50
2018-05-05T07:21:11.396Z,12.13
2018-05-05T07:23:39.759Z,10.43
2018-05-05T07:26:08.835Z,9.73
2018-05-05T07:28:37.327Z,9.60
2018-05-05T07:31:06.515Z,10.00
2018-05-05T07:33:35.139Z,10.20
2018-05-05T07:36:03.775Z,10.73
2018-05-05T07:38:31.953Z,10.20
2018-05-05T07:41:01.152Z,10.90
2018-05-05T07:43:29.536Z,10.60
2018-05-05T07:45:57.901Z,11.50
2018-05-05T07:48:26.156Z,10.00
2018-05-05T07:50:54.759Z,10.73
2018-05-05T07:53:23.251Z,10.83
2018-05-05T07:55:51.726Z,11.50
2018-05-05T07:58:20.095Z,11.30
2018-05-05T08:00:48.608Z,9.90
2018-05-05T08:03:17.482Z,9.33
2018-05-05T08:05:46.353Z,9.77
2018-05-05T08:08:15.152Z,9.87
2018-05-05T08:10:43.852Z,10.33
2018-05-05T08:13:12.950Z,10.03
2018-05-05T08:15:42.340Z,9.60
2018-05-05T08:18:10.834Z,9.50
2018-05-05T08:20:40.200Z,9.87
2018-05-05T08:23:08.806Z,9.50
2018-05-05T08:25:36.983Z,7.80
2018-05-05T08:28:05.448Z,9.10
2018-05-05T08:30:33.838Z,9.07
2018-05-05T08:33:02.191Z,9.37
2018-05-05T08:35:30.767Z,9.50
2018-05-05T08:37:59.076Z,9.80
2018-05-05T08:40:27.652Z,10.10
2018-05-05T08:42:55.928Z,10.03
2018-05-05T08:45:24.297Z,11.50
2018-05-05T08:47:52.785Z,11.00
2018-05-05T08:50:21.087Z,11.40
2018-05-05T08:52:50.672Z,11.67
2018-05-05T08:55:19.642Z,10.80
2018-05-05T08:57:48.233Z,10.50
2018-05-05T09:00:16.431Z,10.63
2018-05-05T09:02:45.630Z,10.90
2018-05-05T09:05:15.028Z,11.40
2018-05-05T09:07:43.109Z,10.60
2018-05-05T09:10:12.273Z,10.57
2018-05-05T09:12:40.640Z,10.30
2018-05-05T09:15:09.201Z,9.33
2018-05-05T09:17:38.029Z,9.40
2018-05-05T09:20:07.062Z,11.03
2018-05-05T09:22:35.312Z,9.00
2018-05-05T09:25:03.863Z,9.77
2018-05-05T09:27:32.299Z,9.30
2018-05-05T09:30:01.874Z,9.00
2018-05-05T09:32:30.866Z,10.60
2018-05-05T09:34:59.013Z,8.93
2018-05-05T09:37:27.366Z,9.15
2018-05-05T09:39:55.583Z,8.23
2018-05-05T09:42:24.160Z,8.93
2018-05-05T09:44:52.648Z,8.60
2018-05-05T09:47:20.842Z,8.80
2018-05-05T09:49:49.932Z,9.20
2018-05-05T09:52:18.088Z,9.00
2018-05-05T09:54:46.594Z,9.43
2018-05-05T09:57:15.387Z,8.80
2018-05-05T09:59:45.096Z,9.73
2018-05-05T10:02:14.536Z,8.80
2018-05-05T10:04:43.186Z,8.87
2018-05-05T10:07:12.363Z,9.30
2018-05-05T10:09:41.267Z,11.47
2018-05-05T10:12:10.824Z,9.13
2018-05-05T10:14:39.143Z,9.52
2018-05-05T10:17:09.157Z,9.03
2018-05-05T10:19:37.298Z,9.63
2018-05-05T10:22:05.584Z,9.53
2018-05-05T10:24:34.183Z,10.75
2018-05-05T10:27:03.072Z,9.60
2018-05-05T10:29:31.979Z,10.30
2018-05-05T10:32:02.406Z,9.55
2018-05-05T10:34:31.598Z,10.25
2018-05-05T10:37:01.108Z,10.23
2018-05-05T10:39:30.815Z,9.68
2018-05-05T10:42:00.413Z,9.70
2018-05-05T10:44:28.916Z,10.10
2018-05-05T10:46:58.066Z,10.40
2018-05-05T10:49:26.664Z,9.40
2018-05-05T10:51:55.177Z,9.50
2018-05-05T10:54:23.547Z,9.15
2018-05-05T10:56:53.175Z,8.77
2018-05-05T10:59:21.611Z,8.75
2018-05-05T11:01:50.319Z,9.02
2018-05-05T11:04:19.698Z,8.60
2018-05-05T11:06:47.842Z,8.73
2018-05-05T11:09:16.548Z,8.70
2018-05-05T11:11:44.930Z,7.93
2018-05-05T11:14:13.493Z,7.80
2018-05-05T11:16:42.297Z,9.25
2018-05-05T11:19:10.470Z,8.77
2018-05-05T11:21:39.039Z,8.82
2018-05-05T11:24:07.448Z,8.88
2018-05-05T11:26:36.732Z,7.78
2018-05-05T11:29:05.352Z,7.40
2018-05-05T11:31:34.726Z,8.07
2018-05-05T11:34:03.101Z,8.32
2018-05-05T11:36:31.645Z,7.55
2018-05-05T11:39:01.201Z,8.75
2018-05-05T11:41:29.785Z,8.13
2018-05-05T11:43:59.307Z,7.60
2018-05-05T11:46:28.850Z,7.37
2018-05-05T11:48:57.283Z,7.57
2018-05-05T11:51:26.266Z,7.30
2018-05-05T11:53:54.431Z,8.13
2018-05-05T11:56:22.991Z,7.90
2018-05-05T11:58:51.455Z,7.90
2018-05-05T12:01:19.802Z,8.77
2018-05-05T12:03:49.183Z,9.10
2018-05-05T12:06:18.681Z,8.90
2018-05-05T12:08:47.476Z,9.00
2018-05-05T12:11:16.043Z,8.80
2018-05-05T12:13:44.548Z,8.53
2018-05-05T12:16:13.884Z,10.03
2018-05-05T12:18:42.955Z,10.47
2018-05-05T12:21:11.597Z,10.00
2018-05-05T12:23:39.899Z,8.90
2018-05-05T12:26:09.018Z,10.30
2018-05-05T12:28:39.221Z,9.60
2018-05-05T12:31:08.749Z,9.48
2018-05-05T12:33:37.587Z,9.43
2018-05-05T12:36:05.687Z,9.67
2018-05-05T12:38:34.870Z,10.40
2018-05-05T12:41:03.647Z,9.80
2018-05-05T12:43:33.747Z,9.63
2018-05-05T12:46:03.090Z,10.40
2018-05-05T12:48:32.489Z,10.93
2018-05-05T12:51:01.460Z,9.80
2018-05-05T12:53:29.951Z,9.83
2018-05-05T12:55:58.553Z,8.70
2018-05-05T12:58:27.828Z,8.40
2018-05-05T13:00:57.013Z,8.40
2018-05-05T13:03:25.475Z,8.40
2018-05-05T13:05:53.587Z,9.40
2018-05-05T13:08:23.073Z,9.13
2018-05-05T13:10:51.691Z,9.37
2018-05-05T13:13:21.060Z,8.47
2018-05-05T13:15:49.342Z,8.30
2018-05-05T13:18:17.631Z,8.87
2018-05-05T13:20:45.902Z,9.57
2018-05-05T13:23:14.492Z,8.13
2018-05-05T13:25:42.924Z,8.67
2018-05-05T13:28:11.395Z,8.43
2018-05-05T13:30:39.997Z,8.33
2018-05-05T13:33:08.636Z,8.47
2018-05-05T13:35:38.296Z,8.10
2018-05-05T13:38:06.684Z,9.43
2018-05-05T13:40:35.053Z,8.20
2018-05-05T13:43:03.343Z,9.40
2018-05-05T13:45:31.914Z,9.30
2018-05-05T13:48:00.632Z,8.57
2018-05-05T13:50:30.114Z,8.47
2018-05-05T13:52:59.074Z,9.50
2018-05-05T13:55:28.526Z,10.00
2018-05-05T13:57:56.701Z,9.03
2018-05-05T14:00:25.385Z,9.00
2018-05-05T14:02:54.065Z,9.90
2018-05-05T14:05:22.539Z,10.50
2018-05-05T14:07:50.913Z,9.17
2018-05-05T14:10:19.412Z,10.10
2018-05-05T14:12:48.595Z,11.60
2018-05-05T14:15:16.982Z,11.60
2018-05-05T14:17:45.669Z,11.07
2018-05-05T14:20:14.116Z,11.23
2018-05-05T14:22:42.803Z,11.37
2018-05-05T14:25:10.905Z,12.43
2018-05-05T14:27:39.079Z,11.07
2018-05-05T14:30:07.322Z,11.10
2018-05-05T14:32:35.539Z,10.93
2018-05-05T14:35:04.925Z,10.83
2018-05-05T14:37:32.783Z,11.40
2018-05-05T14:40:01.386Z,13.07
2018-05-05T14:42:30.588Z,10.63
2018-05-05T14:44:59.660Z,12.57
2018-05-05T14:47:28.238Z,12.60
2018-05-05T14:49:57.822Z,11.20
2018-05-05T14:52:26.507Z,11.77
2018-05-05T14:54:54.727Z,11.87
2018-05-05T14:57:24.200Z,12.57
2018-05-05T14:59:52.507Z,10.60
2018-05-05T15:02:20.734Z,11.57
2018-05-05T15:04:49.561Z,13.10
2018-05-05T15:07:17.745Z,14.10
2018-05-05T15:09:46.824Z,10.77
2018-05-05T15:12:15.103Z,10.80
2018-05-05T15:14:43.724Z,10.73
2018-05-05T15:17:13.095Z,10.37
2018-05-05T15:19:41.503Z,11.33
2018-05-05T15:22:10.449Z,11.37
2018-05-05T15:24:38.859Z,11.20
2018-05-05T15:27:08.644Z,17.20
2018-05-05T15:29:37.541Z,11.83
2018-05-05T15:32:05.718Z,12.10
2018-05-05T15:34:34.275Z,11.50
2018-05-05T15:37:02.980Z,11.37
2018-05-05T15:39:31.361Z,11.10
2018-05-05T15:41:59.218Z,12.17
2018-05-05T15:44:28.638Z,12.30
2018-05-05T15:46:56.877Z,12.50
2018-05-05T15:49:25.296Z,11.43
2018-05-05T15:51:55.104Z,11.40
2018-05-05T15:54:23.778Z,12.10
2018-05-05T15:56:52.065Z,11.60
2018-05-05T15:59:20.648Z,11.80
2018-05-05T16:01:50.839Z,12.70
2018-05-05T16:04:19.651Z,11.73
2018-05-05T16:06:47.937Z,10.90
2018-05-05T16:09:16.712Z,12.20
2018-05-05T16:11:45.160Z,11.60
2018-05-05T16:14:13.881Z,11.50
2018-05-05T16:16:42.572Z,11.97
2018-05-05T16:19:11.447Z,11.50
2018-05-05T16:21:39.514Z,11.70
2018-05-05T16:24:08.487Z,11.23
2018-05-05T16:26:36.696Z,10.50
2018-05-05T16:29:06.196Z,10.63
2018-05-05T16:31:34.457Z,10.83
2018-05-05T16:34:03.034Z,9.70
2018-05-05T16:36:31.351Z,12.77
2018-05-05T16:39:00.315Z,11.40
2018-05-05T16:41:28.810Z,13.93
2018-05-05T16:43:57.055Z,11.00
2018-05-05T16:46:25.362Z,12.03
2018-05-05T16:48:53.645Z,12.40
2018-05-05T16:51:22.815Z,11.80
2018-05-05T16:53:51.250Z,12.00
2018-05-05T16:56:19.608Z,11.80
2018-05-05T16:58:48.567Z,12.47
2018-05-05T17:01:17.138Z,11.97
2018-05-05T17:03:45.425Z,12.60
2018-05-05T17:06:13.862Z,12.20
2018-05-05T17:08:41.988Z,11.60
2018-05-05T17:11:10.774Z,12.67
2018-05-05T17:13:39.391Z,12.13
2018-05-05T17:16:07.828Z,12.87
2018-05-05T17:18:36.412Z,13.00
2018-05-05T17:21:05.104Z,13.70
2018-05-05T17:23:33.594Z,13.63
2018-05-05T17:26:01.971Z,13.20
2018-05-05T17:28:31.167Z,13.33
2018-05-05T17:31:00.577Z,12.90
2018-05-05T17:33:29.529Z,12.47
2018-05-05T17:35:58.651Z,11.90
2018-05-05T17:38:27.443Z,10.83
2018-05-05T17:40:56.017Z,11.70
2018-05-05T17:43:24.518Z,11.83
2018-05-05T17:45:54.013Z,12.20
2018-05-05T17:48:22.900Z,11.03
2018-05-05T17:50:51.384Z,21.00
2018-05-05T17:53:19.757Z,12.20
2018-05-05T17:55:48.237Z,16.80
2018-05-05T17:58:17.549Z,13.60
2018-05-05T18:00:46.960Z,12.20
2018-05-05T18:03:16.328Z,15.20
2018-05-05T18:05:45.238Z,13.10
2018-05-05T18:08:13.813Z,11.30
2018-05-05T18:10:42.629Z,11.70
2018-05-05T18:13:11.707Z,9.37
2018-05-05T18:15:41.117Z,16.27
2018-05-05T18:18:11.137Z,13.73
2018-05-05T18:20:40.203Z,12.70
2018-05-05T18:23:08.684Z,11.67
2018-05-05T18:25:37.156Z,15.63
2018-05-05T18:28:05.975Z,20.70
2018-05-05T18:30:35.166Z,15.60
2018-05-05T18:33:04.265Z,15.07
2018-05-05T18:35:33.856Z,16.73
2018-05-05T18:38:02.663Z,13.53
2018-05-05T18:40:32.365Z,11.73
2018-05-05T18:43:01.913Z,13.23
2018-05-05T18:45:30.570Z,12.43
2018-05-05T18:48:00.042Z,14.67
2018-05-05T18:50:28.609Z,20.47
2018-05-05T18:52:57.304Z,17.83
2018-05-05T18:55:26.115Z,13.27
2018-05-05T18:57:55.520Z,17.17
2018-05-05T19:00:24.812Z,19.43
2018-05-05T19:02:53.643Z,18.17
2018-05-05T19:05:22.281Z,16.40
2018-05-05T19:07:50.561Z,16.43
2018-05-05T19:10:19.788Z,16.00
2018-05-05T19:12:48.441Z,14.00
2018-05-05T19:15:17.375Z,21.93
2018-05-05T19:17:46.364Z,18.03
2018-05-05T19:20:14.902Z,15.00
2018-05-05T19:22:43.183Z,13.67
2018-05-05T19:25:11.463Z,15.67
2018-05-05T19:27:40.649Z,15.37
2018-05-05T19:30:09.236Z,14.03
2018-05-05T19:32:37.613Z,14.50
2018-05-05T19:35:06.304Z,13.17
2018-05-05T19:37:35.050Z,12.60
2018-05-05T19:40:03.800Z,11.83
2018-05-05T19:42:33.155Z,13.17
2018-05-05T19:45:01.643Z,12.87
2018-05-05T19:47:30.622Z,13.07
2018-05-05T19:49:59.322Z,12.10
2018-05-05T19:52:28.277Z,12.10
2018-05-05T19:54:56.607Z,12.80
2018-05-05T19:57:26.636Z,12.00
2018-05-05T19:59:56.743Z,13.17
2018-05-05T20:02:25.447Z,12.83
2018-05-05T20:04:54.773Z,12.47
2018-05-05T20:07:23.103Z,12.77
2018-05-05T20:09:53.233Z,13.63
2018-05-05T20:12:22.717Z,14.20
2018-05-05T20:14:51.165Z,13.27
2018-05-05T20:17:19.805Z,12.20
2018-05-05T20:19:48.965Z,12.07
2018-05-05T20:22:17.358Z,12.53
2018-05-05T20:24:45.849Z,13.10
2018-05-05T20:27:14.288Z,12.60
2018-05-05T20:29:42.716Z,12.97
2018-05-05T20:32:11.899Z,13.67
2018-05-05T20:34:40.268Z,14.23
2018-05-05T20:37:08.563Z,13.67
2018-05-05T20:39:37.643Z,12.40
2018-05-05T20:42:05.996Z,15.50
2018-05-05T20:44:34.211Z,14.27
2018-05-05T20:47:03.506Z,14.77
2018-05-05T20:49:31.782Z,15.57
2018-05-05T20:52:01.019Z,14.80
2018-05-05T20:54:29.349Z,14.13
2018-05-05T20:56:57.895Z,14.63
2018-05-05T20:59:26.563Z,14.93
2018-05-05T21:01:55.022Z,15.10
2018-05-05T21:04:24.305Z,16.07
2018-05-05T21:06:53.721Z,16.23
2018-05-05T21:09:22.279Z,15.70
2018-05-05T21:11:50.555Z,15.40
2018-05-05T21:14:20.675Z,17.37
2018-05-05T21:16:49.266Z,15.60
2018-05-05T21:19:18.454Z,16.70
2018-05-05T21:21:47.333Z,16.53
2018-05-05T21:24:17.079Z,16.07
2018-05-05T21:26:46.135Z,15.93
2018-05-05T21:29:14.732Z,17.53
2018-05-05T21:31:43.536Z,15.10
2018-05-05T21:34:12.888Z,16.80
2018-05-05T21:36:42.119Z,17.40
2018-05-05T21:39:10.827Z,16.40
2018-05-05T21:41:39.297Z,16.40
2018-05-05T21:44:08.650Z,16.63
2018-05-05T21:46:37.583Z,17.17
2018-05-05T21:49:06.055Z,15.77
2018-05-05T21:51:34.478Z,16.90
2018-05-05T21:54:03.875Z,15.90
2018-05-05T21:56:32.628Z,16.90
2018-05-05T21:59:01.088Z,16.10
2018-05-05T22:01:29.736Z,16.57
2018-05-05T22:03:58.096Z,17.13
2018-05-05T22:06:27.048Z,17.20
2018-05-05T22:08:55.639Z,18.03
2018-05-05T22:11:23.936Z,17.70
2018-05-05T22:13:53.310Z,17.90
2018-05-05T22:16:21.903Z,19.80
2018-05-05T22:18:50.483Z,19.93
2018-05-05T22:21:19.171Z,19.67
2018-05-05T22:23:47.644Z,20.00
2018-05-05T22:26:17.155Z,20.03
2018-05-05T22:28:45.546Z,21.53
2018-05-05T22:31:14.896Z,19.50
2018-05-05T22:33:43.280Z,20.97
2018-05-05T22:36:11.379Z,19.33
2018-05-05T22:38:39.634Z,20.13
2018-05-05T22:41:07.906Z,20.77
2018-05-05T22:43:36.111Z,20.33
2018-05-05T22:46:04.689Z,21.77
2018-05-05T22:48:33.461Z,21.77
2018-05-05T22:51:02.654Z,20.70
2018-05-05T22:53:31.168Z,20.47
2018-05-05T22:56:00.564Z,19.37
2018-05-05T22:58:28.925Z,19.70
2018-05-05T23:00:57.116Z,19.93
2018-05-05T23:03:25.382Z,20.00
2018-05-05T23:05:53.660Z,18.73
2018-05-05T23:08:22.337Z,21.10
2018-05-05T23:10:50.639Z,21.17
2018-05-05T23:13:19.842Z,18.60
2018-05-05T23:15:48.916Z,17.60
2018-05-05T23:18:17.568Z,18.50
2018-05-05T23:20:46.398Z,17.43
2018-05-05T23:23:14.656Z,19.37
2018-05-05T23:25:42.949Z,18.37
2018-05-05T23:28:12.329Z,19.37
2018-05-05T23:30:40.203Z,19.50
2018-05-05T23:33:08.494Z,18.03
2018-05-05T23:35:37.369Z,17.30
2018-05-05T23:38:05.559Z,17.57
2018-05-05T23:40:34.653Z,17.10
2018-05-05T23:43:04.492Z,18.77
2018-05-05T23:45:32.532Z,17.80
2018-05-05T23:48:00.811Z,18.03
2018-05-05T23:50:29.984Z,17.83
2018-05-05T23:52:58.602Z,18.07
2018-05-05T23:55:28.599Z,17.83
2018-05-05T23:57:56.769Z,17.27
